San Diego International Airport San Diego US
ICAO: KSAN
IATA: SAN
Category: Large
Scheduled Services: Yes

Elevation: 17 ft
TransAlt. 18000 ft.

Airport Communications:
SOCAL APP/DEP:119.6
ATIS:134.8
CLNC DEL:125.9
GND:123.9
CG:157.15
CG:898.4
LINDBERGH TWR:118.3
UNICOM:122.95

KSAN Zoom In..

If you have problems with the map follow the link
https://www.worldairports.se/pages/airport.php?
ICAO=KSAN

Runways:

(A) RW 09 length 9400 ft width 200 ft
ILS 111.55 / hdg 92

(B) RW 27 length 9400 ft width 200 ft
LOC 110.90 / hdg 272

Location; KSAN
Day. 19 / Time. 18.51 Zulu
* Altimeter: 30.11
* Temperature: 21° c. 69.8°f.
* Wind from: 010° Speed 03 kn.
Dewpoint: 05° c.
Visibility: 10 Statute Miles.
Clouds: Broken 25000 ft.

KSAN 191851Z 01003KT 10SM BKN250 21/05 A3011 RMK AO2 SLP196 T02110050


Wind From 010°
Speed 03 kn.

 
 
jpsmedia worldairports.se 2020   terms of use